createdAt,value
2018-07-04T00:03:20.650Z,8.27
2018-07-04T00:08:34.347Z,6.30
2018-07-04T00:13:47.957Z,8.77
2018-07-04T00:19:01.690Z,9.53
2018-07-04T00:24:15.502Z,12.80
2018-07-04T00:29:29.343Z,15.63
2018-07-04T00:34:43.095Z,9.87
2018-07-04T00:39:56.795Z,18.50
2018-07-04T00:45:10.558Z,13.97
2018-07-04T00:50:24.255Z,13.43
2018-07-04T00:55:37.839Z,14.83
2018-07-04T01:00:51.637Z,7.10
2018-07-04T01:06:05.317Z,16.93
2018-07-04T01:11:19.326Z,10.17
2018-07-04T01:16:33.017Z,12.47
2018-07-04T01:21:46.639Z,16.00
2018-07-04T01:27:00.362Z,11.83
2018-07-04T01:32:14.148Z,8.87
2018-07-04T01:37:27.967Z,9.33
2018-07-04T01:42:41.710Z,14.60
2018-07-04T01:47:55.332Z,12.93
2018-07-04T01:53:09.137Z,13.70
2018-07-04T01:58:22.847Z,9.50
2018-07-04T02:03:36.576Z,9.87
2018-07-04T02:08:50.287Z,13.53
2018-07-04T02:14:03.994Z,11.73
2018-07-04T02:19:18.130Z,8.50
2018-07-04T02:24:31.824Z,13.53
2018-07-04T02:29:45.607Z,10.30
2018-07-04T02:35:00.292Z,14.63
2018-07-04T02:40:13.898Z,8.60
2018-07-04T02:45:27.730Z,10.60
2018-07-04T02:50:41.313Z,22.80
2018-07-04T02:55:55.048Z,12.90
2018-07-04T03:01:08.834Z,11.07
2018-07-04T03:06:22.622Z,14.63
2018-07-04T03:11:36.336Z,15.43
2018-07-04T03:16:50.042Z,14.93
2018-07-04T03:22:03.726Z,10.03
2018-07-04T03:27:17.459Z,12.33
2018-07-04T03:32:31.172Z,8.83
2018-07-04T03:37:44.891Z,12.30
2018-07-04T03:42:58.582Z,10.97
2018-07-04T03:48:12.380Z,9.63
2018-07-04T03:53:26.052Z,13.33
2018-07-04T03:58:39.642Z,17.70
2018-07-04T04:03:53.318Z,12.10
2018-07-04T04:09:06.882Z,12.77
2018-07-04T04:14:20.624Z,11.17
2018-07-04T04:19:34.824Z,12.43
2018-07-04T04:24:48.877Z,9.33
2018-07-04T04:30:02.410Z,6.50
2018-07-04T04:35:16.040Z,11.87
2018-07-04T04:40:29.734Z,9.90
2018-07-04T04:45:43.534Z,9.20
2018-07-04T04:50:57.153Z,11.07
2018-07-04T04:56:10.933Z,8.57
2018-07-04T05:01:24.647Z,21.70
2018-07-04T05:06:38.373Z,8.60
2018-07-04T05:11:52.165Z,6.20
2018-07-04T05:17:05.784Z,9.77
2018-07-04T05:22:19.568Z,4.93
2018-07-04T05:27:33.315Z,7.70
2018-07-04T05:32:46.865Z,6.87
2018-07-04T05:38:00.530Z,14.73
2018-07-04T05:43:14.317Z,7.43
2018-07-04T05:48:27.948Z,4.87
2018-07-04T05:53:41.607Z,4.13
2018-07-04T05:58:55.228Z,9.13
2018-07-04T06:04:08.782Z,4.30
2018-07-04T06:09:22.446Z,3.13
2018-07-04T06:14:36.088Z,2.90
2018-07-04T06:19:49.786Z,15.73
2018-07-04T06:25:03.598Z,9.33
2018-07-04T06:30:17.379Z,8.33
2018-07-04T06:36:34.506Z,3.33
2018-07-04T06:41:35.704Z,5.90
2018-07-04T06:46:36.929Z,4.57
2018-07-04T06:51:38.165Z,4.00
2018-07-04T06:56:39.399Z,6.60
2018-07-04T07:01:40.631Z,2.90
2018-07-04T07:06:54.326Z,7.60
2018-07-04T07:12:07.914Z,6.67
2018-07-04T07:17:21.670Z,7.70
2018-07-04T07:22:35.428Z,3.63
2018-07-04T07:27:49.474Z,1.77
2018-07-04T07:33:03.122Z,3.00
2018-07-04T07:38:16.745Z,1.23
2018-07-04T07:43:30.399Z,2.17
2018-07-04T07:48:44.016Z,3.53
2018-07-04T07:53:57.688Z,1.90
2018-07-04T07:59:11.279Z,6.00
2018-07-04T08:04:24.944Z,4.73
2018-07-04T08:09:38.649Z,1.20
2018-07-04T08:14:52.403Z,1.23
2018-07-04T08:20:05.984Z,2.87
2018-07-04T08:25:19.600Z,2.20
2018-07-04T08:30:33.327Z,5.63
2018-07-04T08:35:47.000Z,3.30
2018-07-04T08:41:00.845Z,4.93
2018-07-04T08:46:14.484Z,1.73
2018-07-04T08:51:28.176Z,5.47
2018-07-04T08:56:41.814Z,3.83
2018-07-04T09:01:55.302Z,1.90
2018-07-04T09:07:09.112Z,3.40
2018-07-04T09:12:22.767Z,3.70
2018-07-04T09:17:36.540Z,2.60
2018-07-04T09:22:50.368Z,9.60
2018-07-04T09:28:04.092Z,1.63
2018-07-04T09:33:17.707Z,4.60
2018-07-04T09:38:31.390Z,1.83
2018-07-04T09:43:45.205Z,1.57
2018-07-04T09:48:58.986Z,2.37
2018-07-04T09:54:12.728Z,7.90
2018-07-04T09:59:26.403Z,3.37
2018-07-04T10:04:39.998Z,2.03
2018-07-04T10:09:53.606Z,1.40
2018-07-04T10:15:07.211Z,3.40
2018-07-04T10:20:20.796Z,1.70
2018-07-04T10:25:34.655Z,1.60
2018-07-04T10:30:48.240Z,2.33
2018-07-04T10:36:01.909Z,1.93
2018-07-04T10:41:15.455Z,2.90
2018-07-04T10:46:29.047Z,1.63
2018-07-04T10:51:42.871Z,1.37
2018-07-04T10:56:56.550Z,1.63
2018-07-04T11:02:10.206Z,3.27
2018-07-04T11:07:24.202Z,1.60
2018-07-04T11:12:37.875Z,1.60
2018-07-04T11:17:51.695Z,2.83
2018-07-04T11:23:05.323Z,4.03
2018-07-04T11:28:19.050Z,4.10
2018-07-04T11:33:32.642Z,3.30
2018-07-04T11:38:46.155Z,1.53
2018-07-04T11:43:59.766Z,2.23
2018-07-04T11:49:01.393Z,3.20
2018-07-04T11:54:02.644Z,12.10
2018-07-04T11:59:03.885Z,5.90
2018-07-04T12:04:17.608Z,5.43
2018-07-04T12:09:18.805Z,5.20
2018-07-04T12:14:20.053Z,6.37
2018-07-04T12:19:21.336Z,6.20
2018-07-04T12:24:22.561Z,3.50
2018-07-04T12:29:23.789Z,6.00
2018-07-04T12:34:25.022Z,3.80
2018-07-04T12:39:26.240Z,3.60
2018-07-04T12:44:27.492Z,2.43
2018-07-04T12:49:28.875Z,2.30
2018-07-04T12:54:35.923Z,4.43
2018-07-04T12:59:49.525Z,2.43
2018-07-04T13:05:03.264Z,9.23
2018-07-04T13:10:17.147Z,4.60
2018-07-04T13:15:30.792Z,2.40
2018-07-04T13:20:44.625Z,2.60
2018-07-04T13:25:58.617Z,3.00
2018-07-04T13:31:12.204Z,2.40
2018-07-04T13:36:25.716Z,3.73
2018-07-04T13:41:39.379Z,2.97
2018-07-04T13:46:54.056Z,3.20
2018-07-04T13:52:08.831Z,3.10
2018-07-04T13:57:22.655Z,9.40
2018-07-04T14:02:36.417Z,3.03
2018-07-04T14:07:50.114Z,2.17
2018-07-04T14:13:03.884Z,2.50
2018-07-04T14:18:17.738Z,7.13
2018-07-04T14:23:31.448Z,2.90
2018-07-04T14:28:45.136Z,5.30
2018-07-04T14:33:58.841Z,1.80
2018-07-04T14:39:12.467Z,1.20
2018-07-04T14:44:26.221Z,1.50
2018-07-04T14:49:39.814Z,4.20
2018-07-04T14:54:53.689Z,1.63
2018-07-04T15:00:07.536Z,2.00
2018-07-04T15:05:21.093Z,1.47
2018-07-04T15:10:34.838Z,2.10
2018-07-04T15:15:48.693Z,1.70
2018-07-04T15:21:02.503Z,1.60
2018-07-04T15:26:16.148Z,3.33
2018-07-04T15:31:29.923Z,1.70
2018-07-04T15:36:43.623Z,1.97
2018-07-04T15:41:57.460Z,1.80
2018-07-04T15:47:11.132Z,3.00
2018-07-04T15:52:24.764Z,1.33
2018-07-04T15:57:38.324Z,1.60
2018-07-04T16:02:51.956Z,1.63
2018-07-04T16:08:05.680Z,0.90
2018-07-04T16:13:19.427Z,2.40
2018-07-04T16:18:33.267Z,1.47
2018-07-04T16:23:47.025Z,5.10
2018-07-04T16:29:00.941Z,2.73
2018-07-04T16:34:14.699Z,5.17
2018-07-04T16:39:28.303Z,0.70
2018-07-04T16:44:42.202Z,1.60
2018-07-04T16:49:55.941Z,0.93
2018-07-04T16:55:09.713Z,0.90
2018-07-04T17:00:23.387Z,1.27
2018-07-04T17:05:37.020Z,1.40
2018-07-04T17:10:50.720Z,1.97
2018-07-04T17:16:04.449Z,1.93
2018-07-04T17:21:17.979Z,1.10
2018-07-04T17:26:31.743Z,1.07
2018-07-04T17:31:45.425Z,2.40
2018-07-04T17:36:58.998Z,1.93
2018-07-04T17:42:12.619Z,2.13
2018-07-04T17:47:26.431Z,4.53
2018-07-04T17:52:40.380Z,3.90
2018-07-04T17:57:54.134Z,2.30
2018-07-04T18:03:07.981Z,2.60
2018-07-04T18:08:21.743Z,0.97
2018-07-04T18:13:36.662Z,1.90
2018-07-04T18:18:50.407Z,0.90
2018-07-04T18:24:05.331Z,4.87
2018-07-04T18:29:19.005Z,0.80
2018-07-04T18:34:32.673Z,0.80
2018-07-04T18:39:46.316Z,2.23
2018-07-04T18:45:00.166Z,1.33
2018-07-04T18:50:13.765Z,1.43
2018-07-04T18:55:27.631Z,1.40
2018-07-04T19:00:41.324Z,1.47
2018-07-04T19:05:54.870Z,2.30
2018-07-04T19:11:08.719Z,1.20
2018-07-04T19:16:22.437Z,1.23
2018-07-04T19:21:36.072Z,1.37
2018-07-04T19:26:49.945Z,1.63
2018-07-04T19:32:03.781Z,1.63
2018-07-04T19:37:17.498Z,1.10
2018-07-04T19:42:31.217Z,1.33
2018-07-04T19:47:44.856Z,0.93
2018-07-04T19:52:58.590Z,2.63
2018-07-04T19:58:12.169Z,0.80
2018-07-04T20:03:25.849Z,1.00
2018-07-04T20:08:39.623Z,1.00
2018-07-04T20:13:53.256Z,1.47
2018-07-04T20:19:06.995Z,2.13
2018-07-04T20:24:20.633Z,1.10
2018-07-04T20:29:34.362Z,4.10
2018-07-04T20:34:48.180Z,1.17
2018-07-04T20:40:01.980Z,1.07
2018-07-04T20:45:15.687Z,1.23
2018-07-04T20:50:29.447Z,1.40
2018-07-04T20:55:43.088Z,1.40
2018-07-04T21:00:56.726Z,1.30
2018-07-04T21:06:10.458Z,0.83
2018-07-04T21:11:24.292Z,1.33
2018-07-04T21:16:38.072Z,3.57
2018-07-04T21:21:51.882Z,2.60
2018-07-04T21:27:05.680Z,1.57
2018-07-04T21:32:19.380Z,3.60
2018-07-04T21:37:33.111Z,2.30
2018-07-04T21:42:46.786Z,5.33
2018-07-04T21:48:00.466Z,3.00
2018-07-04T21:53:14.175Z,1.50
2018-07-04T21:58:27.955Z,2.10
2018-07-04T22:03:41.731Z,2.10
2018-07-04T22:08:55.310Z,1.20
2018-07-04T22:14:08.963Z,1.53
2018-07-04T22:19:22.534Z,1.80
2018-07-04T22:24:36.255Z,1.43
2018-07-04T22:29:49.837Z,1.87
2018-07-04T22:35:03.476Z,1.67
2018-07-04T22:40:17.095Z,2.03
2018-07-04T22:45:30.644Z,1.67
2018-07-04T22:50:44.293Z,1.87
2018-07-04T22:55:58.048Z,1.90
2018-07-04T23:01:11.603Z,1.50
2018-07-04T23:06:25.442Z,1.30
2018-07-04T23:11:39.110Z,1.70
2018-07-04T23:16:52.820Z,1.47
2018-07-04T23:22:06.748Z,1.30
2018-07-04T23:27:20.429Z,1.90
2018-07-04T23:32:34.140Z,1.50
2018-07-04T23:37:47.964Z,1.27
2018-07-04T23:43:01.622Z,1.43
2018-07-04T23:48:15.349Z,2.30
2018-07-04T23:53:29.039Z,2.60
2018-07-04T23:58:42.616Z,1.40
